sensor_id;sensor_type;location;lat;lon;timestamp;temperature;humidity
17687;DHT22;8962;52.538;13.266;2022-09-01T00:02:18;15.70;99.90
17687;DHT22;8962;52.538;13.266;2022-09-01T00:04:45;15.80;99.90
17687;DHT22;8962;52.538;13.266;2022-09-01T00:07:14;15.70;99.90
17687;DHT22;8962;52.538;13.266;2022-09-01T00:09:45;15.70;99.90
17687;DHT22;8962;52.538;13.266;2022-09-01T00:12:13;15.70;99.90
17687;DHT22;8962;52.538;13.266;2022-09-01T00:14:42;15.70;99.90
17687;DHT22;8962;52.538;13.266;2022-09-01T00:17:11;15.70;99.90
17687;DHT22;8962;52.538;13.266;2022-09-01T00:19:42;15.70;99.90
17687;DHT22;8962;52.538;13.266;2022-09-01T00:22:09;15.70;99.90
17687;DHT22;8962;52.538;13.266;2022-09-01T00:24:36;15.70;99.90
17687;DHT22;8962;52.538;13.266;2022-09-01T00:27:03;15.70;99.90
17687;DHT22;8962;52.538;13.266;2022-09-01T00:29:35;15.70;99.90
17687;DHT22;8962;52.538;13.266;2022-09-01T00:32:03;15.60;99.90
17687;DHT22;8962;52.538;13.266;2022-09-01T00:34:31;15.60;99.90
17687;DHT22;8962;52.538;13.266;2022-09-01T00:36:59;15.60;99.90
17687;DHT22;8962;52.538;13.266;2022-09-01T00:39:26;15.60;99.90
17687;DHT22;8962;52.538;13.266;2022-09-01T00:41:53;15.50;99.90
17687;DHT22;8962;52.538;13.266;2022-09-01T00:44:21;15.50;99.90
17687;DHT22;8962;52.538;13.266;2022-09-01T00:46:53;15.50;99.90
17687;DHT22;8962;52.538;13.266;2022-09-01T00:49:27;15.50;99.90
17687;DHT22;8962;52.538;13.266;2022-09-01T00:51:58;15.50;99.90
17687;DHT22;8962;52.538;13.266;2022-09-01T00:54:29;15.50;99.90
17687;DHT22;8962;52.538;13.266;2022-09-01T00:56:58;15.50;99.90
17687;DHT22;8962;52.538;13.266;2022-09-01T00:59:27;15.40;99.90
17687;DHT22;8962;52.538;13.266;2022-09-01T01:01:54;15.40;99.90
17687;DHT22;8962;52.538;13.266;2022-09-01T01:04:25;15.40;99.90
17687;DHT22;8962;52.538;13.266;2022-09-01T01:06:57;15.40;99.90
17687;DHT22;8962;52.538;13.266;2022-09-01T01:09:28;15.40;99.90
17687;DHT22;8962;52.538;13.266;2022-09-01T01:11:58;15.40;99.90
17687;DHT22;8962;52.538;13.266;2022-09-01T01:14:27;15.30;99.90
17687;DHT22;8962;52.538;13.266;2022-09-01T01:16:59;15.30;99.90
17687;DHT22;8962;52.538;13.266;2022-09-01T01:19:38;15.20;99.90
17687;DHT22;8962;52.538;13.266;2022-09-01T01:22:32;15.20;99.90
17687;DHT22;8962;52.538;13.266;2022-09-01T01:25:21;15.20;99.90
17687;DHT22;8962;52.538;13.266;2022-09-01T01:27:50;15.20;99.90
17687;DHT22;8962;52.538;13.266;2022-09-01T01:30:18;15.10;99.90
17687;DHT22;8962;52.538;13.266;2022-09-01T01:32:46;15.10;99.90
17687;DHT22;8962;52.538;13.266;2022-09-01T01:35:15;15.10;99.90
17687;DHT22;8962;52.538;13.266;2022-09-01T01:37:46;15.00;99.90
17687;DHT22;8962;52.538;13.266;2022-09-01T01:40:18;15.00;99.90
17687;DHT22;8962;52.538;13.266;2022-09-01T01:42:51;14.90;99.90
17687;DHT22;8962;52.538;13.266;2022-09-01T01:45:21;14.90;99.90
17687;DHT22;8962;52.538;13.266;2022-09-01T01:47:50;14.90;99.90
17687;DHT22;8962;52.538;13.266;2022-09-01T01:50:19;14.80;99.90
17687;DHT22;8962;52.538;13.266;2022-09-01T01:52:46;14.70;99.90
17687;DHT22;8962;52.538;13.266;2022-09-01T01:55:15;14.70;99.90
17687;DHT22;8962;52.538;13.266;2022-09-01T01:57:45;14.70;99.90
17687;DHT22;8962;52.538;13.266;2022-09-01T02:00:20;14.70;99.90
17687;DHT22;8962;52.538;13.266;2022-09-01T02:02:49;14.70;99.90
17687;DHT22;8962;52.538;13.266;2022-09-01T02:05:26;14.70;99.90
17687;DHT22;8962;52.538;13.266;2022-09-01T02:07:56;14.70;99.90
17687;DHT22;8962;52.538;13.266;2022-09-01T02:10:27;14.70;99.90
17687;DHT22;8962;52.538;13.266;2022-09-01T02:12:56;14.70;99.90
17687;DHT22;8962;52.538;13.266;2022-09-01T02:15:31;14.60;99.90
17687;DHT22;8962;52.538;13.266;2022-09-01T02:18:10;14.60;99.90
17687;DHT22;8962;52.538;13.266;2022-09-01T02:20:39;14.50;99.90
17687;DHT22;8962;52.538;13.266;2022-09-01T02:23:09;14.50;99.90
17687;DHT22;8962;52.538;13.266;2022-09-01T02:25:39;14.50;99.90
17687;DHT22;8962;52.538;13.266;2022-09-01T02:28:11;14.40;99.90
17687;DHT22;8962;52.538;13.266;2022-09-01T02:30:49;14.40;99.90
17687;DHT22;8962;52.538;13.266;2022-09-01T02:33:23;14.30;99.90
17687;DHT22;8962;52.538;13.266;2022-09-01T02:35:53;14.20;99.90
17687;DHT22;8962;52.538;13.266;2022-09-01T02:38:22;14.20;99.90
17687;DHT22;8962;52.538;13.266;2022-09-01T02:40:51;14.10;99.90
17687;DHT22;8962;52.538;13.266;2022-09-01T02:43:21;14.00;99.90
17687;DHT22;8962;52.538;13.266;2022-09-01T02:45:57;14.00;99.90
17687;DHT22;8962;52.538;13.266;2022-09-01T02:48:30;13.90;99.90
17687;DHT22;8962;52.538;13.266;2022-09-01T02:51:08;13.90;99.90
17687;DHT22;8962;52.538;13.266;2022-09-01T02:53:37;13.90;99.90
17687;DHT22;8962;52.538;13.266;2022-09-01T02:56:08;13.80;99.90
17687;DHT22;8962;52.538;13.266;2022-09-01T02:58:42;13.80;99.90
17687;DHT22;8962;52.538;13.266;2022-09-01T03:01:15;13.80;99.90
17687;DHT22;8962;52.538;13.266;2022-09-01T03:03:48;13.70;99.90
17687;DHT22;8962;52.538;13.266;2022-09-01T03:06:15;13.70;99.90
17687;DHT22;8962;52.538;13.266;2022-09-01T03:08:47;13.60;99.90
17687;DHT22;8962;52.538;13.266;2022-09-01T03:11:15;13.50;99.90
17687;DHT22;8962;52.538;13.266;2022-09-01T03:13:44;13.50;99.90
17687;DHT22;8962;52.538;13.266;2022-09-01T03:16:13;13.40;99.90
17687;DHT22;8962;52.538;13.266;2022-09-01T03:18:41;13.30;99.90
17687;DHT22;8962;52.538;13.266;2022-09-01T03:21:10;13.30;99.90
17687;DHT22;8962;52.538;13.266;2022-09-01T03:23:43;13.20;99.90
17687;DHT22;8962;52.538;13.266;2022-09-01T03:26:12;13.20;99.90
17687;DHT22;8962;52.538;13.266;2022-09-01T03:28:39;13.20;99.90
17687;DHT22;8962;52.538;13.266;2022-09-01T03:31:07;13.10;99.90
17687;DHT22;8962;52.538;13.266;2022-09-01T03:33:36;13.00;99.90
17687;DHT22;8962;52.538;13.266;2022-09-01T03:36:07;13.00;99.90
17687;DHT22;8962;52.538;13.266;2022-09-01T03:38:35;12.90;99.90
17687;DHT22;8962;52.538;13.266;2022-09-01T03:41:04;12.90;99.90
17687;DHT22;8962;52.538;13.266;2022-09-01T03:43:34;12.80;99.90
17687;DHT22;8962;52.538;13.266;2022-09-01T03:46:04;12.80;99.90
17687;DHT22;8962;52.538;13.266;2022-09-01T03:48:41;12.80;99.90
17687;DHT22;8962;52.538;13.266;2022-09-01T03:51:09;12.70;99.90
17687;DHT22;8962;52.538;13.266;2022-09-01T03:53:39;12.70;99.90
17687;DHT22;8962;52.538;13.266;2022-09-01T03:56:07;12.60;99.90
17687;DHT22;8962;52.538;13.266;2022-09-01T03:58:36;12.50;99.90
17687;DHT22;8962;52.538;13.266;2022-09-01T04:01:03;12.50;99.90
17687;DHT22;8962;52.538;13.266;2022-09-01T04:03:32;12.50;99.90
17687;DHT22;8962;52.538;13.266;2022-09-01T04:06:06;12.50;99.90
17687;DHT22;8962;52.538;13.266;2022-09-01T04:08:44;12.40;99.90
17687;DHT22;8962;52.538;13.266;2022-09-01T04:11:18;12.40;99.90
17687;DHT22;8962;52.538;13.266;2022-09-01T04:13:52;12.40;99.90
17687;DHT22;8962;52.538;13.266;2022-09-01T04:16:24;12.30;99.90
17687;DHT22;8962;52.538;13.266;2022-09-01T04:19:11;12.30;99.90
17687;DHT22;8962;52.538;13.266;2022-09-01T04:21:59;12.20;99.90
17687;DHT22;8962;52.538;13.266;2022-09-01T04:24:34;12.20;99.90
17687;DHT22;8962;52.538;13.266;2022-09-01T04:27:01;12.20;99.90
17687;DHT22;8962;52.538;13.266;2022-09-01T04:29:32;12.20;99.90
17687;DHT22;8962;52.538;13.266;2022-09-01T04:32:08;12.20;99.90
17687;DHT22;8962;52.538;13.266;2022-09-01T04:34:39;12.20;99.90
17687;DHT22;8962;52.538;13.266;2022-09-01T04:37:13;12.20;99.90
17687;DHT22;8962;52.538;13.266;2022-09-01T04:39:48;12.10;99.90
17687;DHT22;8962;52.538;13.266;2022-09-01T04:42:17;12.20;99.90
17687;DHT22;8962;52.538;13.266;2022-09-01T04:44:47;12.20;99.90
17687;DHT22;8962;52.538;13.266;2022-09-01T04:47:14;12.30;99.90
17687;DHT22;8962;52.538;13.266;2022-09-01T04:49:43;12.30;99.90
17687;DHT22;8962;52.538;13.266;2022-09-01T04:52:15;12.30;99.90
17687;DHT22;8962;52.538;13.266;2022-09-01T04:54:42;12.30;99.90
17687;DHT22;8962;52.538;13.266;2022-09-01T04:57:11;12.30;99.90
17687;DHT22;8962;52.538;13.266;2022-09-01T04:59:38;12.40;99.90
17687;DHT22;8962;52.538;13.266;2022-09-01T05:02:06;12.40;99.90
17687;DHT22;8962;52.538;13.266;2022-09-01T05:04:35;12.40;99.90
17687;DHT22;8962;52.538;13.266;2022-09-01T05:07:03;12.40;99.90
17687;DHT22;8962;52.538;13.266;2022-09-01T05:09:38;12.40;99.90
17687;DHT22;8962;52.538;13.266;2022-09-01T05:12:25;12.50;99.90
17687;DHT22;8962;52.538;13.266;2022-09-01T05:14:58;12.50;99.90
17687;DHT22;8962;52.538;13.266;2022-09-01T05:17:33;12.50;99.90
17687;DHT22;8962;52.538;13.266;2022-09-01T05:20:05;12.60;99.90
17687;DHT22;8962;52.538;13.266;2022-09-01T05:22:36;12.60;99.90
17687;DHT22;8962;52.538;13.266;2022-09-01T05:25:08;12.70;99.90
17687;DHT22;8962;52.538;13.266;2022-09-01T05:27:45;12.70;99.90
17687;DHT22;8962;52.538;13.266;2022-09-01T05:30:19;12.70;99.90
17687;DHT22;8962;52.538;13.266;2022-09-01T05:32:49;12.80;99.90
17687;DHT22;8962;52.538;13.266;2022-09-01T05:35:18;12.80;99.90
17687;DHT22;8962;52.538;13.266;2022-09-01T05:37:50;12.90;99.90
17687;DHT22;8962;52.538;13.266;2022-09-01T05:40:19;13.00;99.90
17687;DHT22;8962;52.538;13.266;2022-09-01T05:42:48;13.00;99.90
17687;DHT22;8962;52.538;13.266;2022-09-01T05:45:21;13.00;99.90
17687;DHT22;8962;52.538;13.266;2022-09-01T05:47:49;13.10;99.90
17687;DHT22;8962;52.538;13.266;2022-09-01T05:50:17;13.20;99.90
17687;DHT22;8962;52.538;13.266;2022-09-01T05:52:45;13.30;99.90
17687;DHT22;8962;52.538;13.266;2022-09-01T05:55:16;13.40;99.90
17687;DHT22;8962;52.538;13.266;2022-09-01T05:57:46;13.50;99.90
17687;DHT22;8962;52.538;13.266;2022-09-01T06:00:17;13.60;99.90
17687;DHT22;8962;52.538;13.266;2022-09-01T06:02:47;13.70;99.90
17687;DHT22;8962;52.538;13.266;2022-09-01T06:05:20;13.90;99.90
17687;DHT22;8962;52.538;13.266;2022-09-01T06:07:52;14.00;99.90
17687;DHT22;8962;52.538;13.266;2022-09-01T06:10:23;14.10;99.90
17687;DHT22;8962;52.538;13.266;2022-09-01T06:12:55;14.20;99.90
17687;DHT22;8962;52.538;13.266;2022-09-01T06:15:26;14.30;99.90
17687;DHT22;8962;52.538;13.266;2022-09-01T06:17:58;14.40;99.90
17687;DHT22;8962;52.538;13.266;2022-09-01T06:20:41;14.50;99.90
17687;DHT22;8962;52.538;13.266;2022-09-01T06:23:15;14.60;99.90
17687;DHT22;8962;52.538;13.266;2022-09-01T06:25:46;14.80;99.90
17687;DHT22;8962;52.538;13.266;2022-09-01T06:28:18;14.90;99.90
17687;DHT22;8962;52.538;13.266;2022-09-01T06:30:49;15.10;99.90
17687;DHT22;8962;52.538;13.266;2022-09-01T06:33:18;15.30;99.90
17687;DHT22;8962;52.538;13.266;2022-09-01T06:35:51;15.30;99.90
17687;DHT22;8962;52.538;13.266;2022-09-01T06:38:23;15.30;99.90
17687;DHT22;8962;52.538;13.266;2022-09-01T06:40:59;15.30;99.90
17687;DHT22;8962;52.538;13.266;2022-09-01T06:43:31;15.80;99.90
17687;DHT22;8962;52.538;13.266;2022-09-01T06:46:01;15.70;99.90
17687;DHT22;8962;52.538;13.266;2022-09-01T06:48:32;15.80;99.90
17687;DHT22;8962;52.538;13.266;2022-09-01T06:51:09;15.70;99.90
17687;DHT22;8962;52.538;13.266;2022-09-01T06:53:40;15.80;99.90
17687;DHT22;8962;52.538;13.266;2022-09-01T06:56:11;15.90;99.90
17687;DHT22;8962;52.538;13.266;2022-09-01T06:58:42;16.00;99.90
17687;DHT22;8962;52.538;13.266;2022-09-01T07:01:14;16.10;99.90
17687;DHT22;8962;52.538;13.266;2022-09-01T07:03:43;16.20;99.90
17687;DHT22;8962;52.538;13.266;2022-09-01T07:06:19;16.30;99.90
17687;DHT22;8962;52.538;13.266;2022-09-01T07:09:12;16.40;99.90
17687;DHT22;8962;52.538;13.266;2022-09-01T07:11:41;16.60;99.90
17687;DHT22;8962;52.538;13.266;2022-09-01T07:14:15;16.70;99.90
17687;DHT22;8962;52.538;13.266;2022-09-01T07:16:42;16.70;99.90
17687;DHT22;8962;52.538;13.266;2022-09-01T07:19:11;16.90;99.90
17687;DHT22;8962;52.538;13.266;2022-09-01T07:21:57;17.00;99.90
17687;DHT22;8962;52.538;13.266;2022-09-01T07:24:28;17.10;99.90
17687;DHT22;8962;52.538;13.266;2022-09-01T07:27:27;17.10;99.90
17687;DHT22;8962;52.538;13.266;2022-09-01T07:29:57;17.20;99.90
17687;DHT22;8962;52.538;13.266;2022-09-01T07:32:30;17.20;99.90
17687;DHT22;8962;52.538;13.266;2022-09-01T07:35:01;17.30;99.90
17687;DHT22;8962;52.538;13.266;2022-09-01T07:37:32;17.30;99.90
17687;DHT22;8962;52.538;13.266;2022-09-01T07:40:07;17.40;99.90
17687;DHT22;8962;52.538;13.266;2022-09-01T07:43:09;17.40;99.90
17687;DHT22;8962;52.538;13.266;2022-09-01T07:46:09;17.60;99.90
17687;DHT22;8962;52.538;13.266;2022-09-01T07:48:42;17.80;99.90
17687;DHT22;8962;52.538;13.266;2022-09-01T07:51:16;18.10;99.90
17687;DHT22;8962;52.538;13.266;2022-09-01T07:53:46;18.30;99.90
17687;DHT22;8962;52.538;13.266;2022-09-01T07:56:15;18.40;99.90
17687;DHT22;8962;52.538;13.266;2022-09-01T07:58:50;18.40;99.90
17687;DHT22;8962;52.538;13.266;2022-09-01T08:01:21;18.10;99.90
17687;DHT22;8962;52.538;13.266;2022-09-01T08:03:50;18.10;99.90
17687;DHT22;8962;52.538;13.266;2022-09-01T08:06:23;18.10;99.90
17687;DHT22;8962;52.538;13.266;2022-09-01T08:08:52;18.10;99.90
17687;DHT22;8962;52.538;13.266;2022-09-01T08:11:22;18.30;99.90
17687;DHT22;8962;52.538;13.266;2022-09-01T08:13:53;18.40;99.90
17687;DHT22;8962;52.538;13.266;2022-09-01T08:16:22;18.50;99.90
17687;DHT22;8962;52.538;13.266;2022-09-01T08:18:49;18.60;99.90
17687;DHT22;8962;52.538;13.266;2022-09-01T08:21:29;18.90;99.90
17687;DHT22;8962;52.538;13.266;2022-09-01T08:24:01;19.20;99.90
17687;DHT22;8962;52.538;13.266;2022-09-01T08:26:32;19.50;99.90
17687;DHT22;8962;52.538;13.266;2022-09-01T08:29:02;19.40;99.90
17687;DHT22;8962;52.538;13.266;2022-09-01T08:31:41;19.50;99.90
17687;DHT22;8962;52.538;13.266;2022-09-01T08:34:11;19.60;99.90
17687;DHT22;8962;52.538;13.266;2022-09-01T08:36:47;19.80;99.90
17687;DHT22;8962;52.538;13.266;2022-09-01T08:39:16;19.90;99.90
17687;DHT22;8962;52.538;13.266;2022-09-01T08:41:46;19.80;99.90
17687;DHT22;8962;52.538;13.266;2022-09-01T08:44:26;19.80;99.90
17687;DHT22;8962;52.538;13.266;2022-09-01T08:47:05;20.00;99.90
17687;DHT22;8962;52.538;13.266;2022-09-01T08:49:36;20.50;99.90
17687;DHT22;8962;52.538;13.266;2022-09-01T08:52:13;20.10;99.90
17687;DHT22;8962;52.538;13.266;2022-09-01T08:54:48;20.00;99.90
17687;DHT22;8962;52.538;13.266;2022-09-01T08:57:19;20.20;99.90
17687;DHT22;8962;52.538;13.266;2022-09-01T09:00:08;20.30;99.90
17687;DHT22;8962;52.538;13.266;2022-09-01T09:02:46;20.40;99.90
17687;DHT22;8962;52.538;13.266;2022-09-01T09:05:28;20.60;99.90
17687;DHT22;8962;52.538;13.266;2022-09-01T09:08:28;20.70;99.90
17687;DHT22;8962;52.538;13.266;2022-09-01T09:11:10;20.90;99.90
17687;DHT22;8962;52.538;13.266;2022-09-01T09:13:56;21.00;99.90
17687;DHT22;8962;52.538;13.266;2022-09-01T09:16:30;21.20;99.90
17687;DHT22;8962;52.538;13.266;2022-09-01T09:19:02;21.00;99.90
17687;DHT22;8962;52.538;13.266;2022-09-01T09:21:34;20.70;99.90
17687;DHT22;8962;52.538;13.266;2022-09-01T09:24:09;20.80;99.90
17687;DHT22;8962;52.538;13.266;2022-09-01T09:26:40;20.70;99.90
17687;DHT22;8962;52.538;13.266;2022-09-01T09:29:08;20.80;99.90
17687;DHT22;8962;52.538;13.266;2022-09-01T09:31:38;20.80;99.90
17687;DHT22;8962;52.538;13.266;2022-09-01T09:34:18;20.80;99.90
17687;DHT22;8962;52.538;13.266;2022-09-01T09:36:54;21.00;99.90
17687;DHT22;8962;52.538;13.266;2022-09-01T09:39:23;21.30;99.90
17687;DHT22;8962;52.538;13.266;2022-09-01T09:42:04;21.40;99.90
17687;DHT22;8962;52.538;13.266;2022-09-01T09:44:40;21.40;99.90
17687;DHT22;8962;52.538;13.266;2022-09-01T09:47:10;21.30;99.90
17687;DHT22;8962;52.538;13.266;2022-09-01T09:49:41;21.40;99.90
17687;DHT22;8962;52.538;13.266;2022-09-01T09:52:16;21.70;99.90
17687;DHT22;8962;52.538;13.266;2022-09-01T09:54:59;21.70;99.90
17687;DHT22;8962;52.538;13.266;2022-09-01T09:57:41;21.80;99.90
17687;DHT22;8962;52.538;13.266;2022-09-01T10:00:18;21.70;99.90
17687;DHT22;8962;52.538;13.266;2022-09-01T10:02:51;21.50;99.90
17687;DHT22;8962;52.538;13.266;2022-09-01T10:05:31;21.40;99.90
17687;DHT22;8962;52.538;13.266;2022-09-01T10:08:06;21.20;99.90
17687;DHT22;8962;52.538;13.266;2022-09-01T10:10:40;21.50;99.90
17687;DHT22;8962;52.538;13.266;2022-09-01T10:13:14;21.50;99.90
17687;DHT22;8962;52.538;13.266;2022-09-01T10:15:49;21.30;99.90
17687;DHT22;8962;52.538;13.266;2022-09-01T10:18:20;21.30;99.90
17687;DHT22;8962;52.538;13.266;2022-09-01T10:20:54;21.40;99.90
17687;DHT22;8962;52.538;13.266;2022-09-01T10:23:23;21.20;99.90
17687;DHT22;8962;52.538;13.266;2022-09-01T10:25:58;21.20;99.90
17687;DHT22;8962;52.538;13.266;2022-09-01T10:28:31;21.50;99.90
17687;DHT22;8962;52.538;13.266;2022-09-01T10:30:59;21.70;99.90
17687;DHT22;8962;52.538;13.266;2022-09-01T10:33:27;21.60;99.90
17687;DHT22;8962;52.538;13.266;2022-09-01T10:35:59;21.50;99.90
17687;DHT22;8962;52.538;13.266;2022-09-01T10:38:28;21.50;99.90
17687;DHT22;8962;52.538;13.266;2022-09-01T10:40:58;21.70;99.90
17687;DHT22;8962;52.538;13.266;2022-09-01T10:43:36;22.10;99.90
17687;DHT22;8962;52.538;13.266;2022-09-01T10:49:20;22.30;99.90
17687;DHT22;8962;52.538;13.266;2022-09-01T10:51:49;22.10;99.90
17687;DHT22;8962;52.538;13.266;2022-09-01T10:54:53;22.30;99.90
17687;DHT22;8962;52.538;13.266;2022-09-01T10:57:38;22.40;99.90
17687;DHT22;8962;52.538;13.266;2022-09-01T11:06:53;22.20;99.90
17687;DHT22;8962;52.538;13.266;2022-09-01T11:09:25;22.20;99.90
17687;DHT22;8962;52.538;13.266;2022-09-01T11:12:26;22.40;99.90
17687;DHT22;8962;52.538;13.266;2022-09-01T11:15:01;22.30;99.90
17687;DHT22;8962;52.538;13.266;2022-09-01T11:17:34;22.60;99.90
17687;DHT22;8962;52.538;13.266;2022-09-01T11:20:06;22.70;99.90
17687;DHT22;8962;52.538;13.266;2022-09-01T11:22:38;22.60;99.90
17687;DHT22;8962;52.538;13.266;2022-09-01T11:25:32;23.00;99.90
17687;DHT22;8962;52.538;13.266;2022-09-01T11:28:05;23.10;99.90
17687;DHT22;8962;52.538;13.266;2022-09-01T11:30:39;22.90;99.90
17687;DHT22;8962;52.538;13.266;2022-09-01T11:36:26;24.20;99.90
17687;DHT22;8962;52.538;13.266;2022-09-01T11:39:03;23.60;98.50
17687;DHT22;8962;52.538;13.266;2022-09-01T11:41:34;22.90;99.30
17687;DHT22;8962;52.538;13.266;2022-09-01T11:44:13;23.00;99.50
17687;DHT22;8962;52.538;13.266;2022-09-01T11:46:42;22.80;99.20
17687;DHT22;8962;52.538;13.266;2022-09-01T11:49:27;22.80;99.50
17687;DHT22;8962;52.538;13.266;2022-09-01T11:52:00;22.60;99.30
17687;DHT22;8962;52.538;13.266;2022-09-01T11:54:38;22.60;99.50
17687;DHT22;8962;52.538;13.266;2022-09-01T11:57:26;23.00;99.60
17687;DHT22;8962;52.538;13.266;2022-09-01T11:59:55;25.40;95.70
17687;DHT22;8962;52.538;13.266;2022-09-01T12:02:26;26.10;91.10
17687;DHT22;8962;52.538;13.266;2022-09-01T12:05:21;25.60;92.30
17687;DHT22;8962;52.538;13.266;2022-09-01T12:07:51;24.20;95.30
17687;DHT22;8962;52.538;13.266;2022-09-01T12:10:30;22.70;98.40
17687;DHT22;8962;52.538;13.266;2022-09-01T12:13:04;21.90;99.90
17687;DHT22;8962;52.538;13.266;2022-09-01T12:15:33;21.80;99.90
17687;DHT22;8962;52.538;13.266;2022-09-01T12:18:12;21.50;99.90
17687;DHT22;8962;52.538;13.266;2022-09-01T12:20:47;21.40;99.90
17687;DHT22;8962;52.538;13.266;2022-09-01T12:23:21;21.50;99.90
17687;DHT22;8962;52.538;13.266;2022-09-01T12:25:53;21.50;99.90
17687;DHT22;8962;52.538;13.266;2022-09-01T12:28:22;21.10;99.90
17687;DHT22;8962;52.538;13.266;2022-09-01T12:30:51;21.10;99.90
17687;DHT22;8962;52.538;13.266;2022-09-01T12:33:21;21.30;99.90
17687;DHT22;8962;52.538;13.266;2022-09-01T12:36:05;21.30;99.90
17687;DHT22;8962;52.538;13.266;2022-09-01T12:38:36;21.40;99.90
17687;DHT22;8962;52.538;13.266;2022-09-01T12:41:22;21.40;99.90
17687;DHT22;8962;52.538;13.266;2022-09-01T12:43:50;21.50;99.90
17687;DHT22;8962;52.538;13.266;2022-09-01T12:46:38;21.50;99.90
17687;DHT22;8962;52.538;13.266;2022-09-01T12:49:17;22.10;99.90
17687;DHT22;8962;52.538;13.266;2022-09-01T12:51:45;22.20;99.90
17687;DHT22;8962;52.538;13.266;2022-09-01T12:54:14;22.70;99.90
17687;DHT22;8962;52.538;13.266;2022-09-01T12:56:49;23.20;99.90
17687;DHT22;8962;52.538;13.266;2022-09-01T12:59:28;23.40;99.90
17687;DHT22;8962;52.538;13.266;2022-09-01T13:01:55;24.20;99.60
17687;DHT22;8962;52.538;13.266;2022-09-01T13:04:29;24.90;98.30
17687;DHT22;8962;52.538;13.266;2022-09-01T13:07:02;25.80;95.10
17687;DHT22;8962;52.538;13.266;2022-09-01T13:09:30;26.10;93.20
17687;DHT22;8962;52.538;13.266;2022-09-01T13:12:29;27.50;91.10
17687;DHT22;8962;52.538;13.266;2022-09-01T13:14:59;28.20;86.70
17687;DHT22;8962;52.538;13.266;2022-09-01T13:17:27;27.20;87.40
17687;DHT22;8962;52.538;13.266;2022-09-01T13:19:58;26.00;90.20
17687;DHT22;8962;52.538;13.266;2022-09-01T13:22:32;26.20;90.70
17687;DHT22;8962;52.538;13.266;2022-09-01T13:25:02;25.40;91.50
17687;DHT22;8962;52.538;13.266;2022-09-01T13:27:36;25.90;91.00
17687;DHT22;8962;52.538;13.266;2022-09-01T13:30:10;26.70;90.20
17687;DHT22;8962;52.538;13.266;2022-09-01T13:32:40;27.90;85.50
17687;DHT22;8962;52.538;13.266;2022-09-01T13:35:09;28.90;79.50
17687;DHT22;8962;52.538;13.266;2022-09-01T13:37:42;28.10;80.00
17687;DHT22;8962;52.538;13.266;2022-09-01T13:40:14;27.60;79.00
17687;DHT22;8962;52.538;13.266;2022-09-01T13:42:49;27.10;80.10
17687;DHT22;8962;52.538;13.266;2022-09-01T13:45:18;26.60;84.40
17687;DHT22;8962;52.538;13.266;2022-09-01T13:47:51;26.30;83.50
17687;DHT22;8962;52.538;13.266;2022-09-01T13:50:20;25.90;85.00
17687;DHT22;8962;52.538;13.266;2022-09-01T13:52:51;25.00;88.60
17687;DHT22;8962;52.538;13.266;2022-09-01T13:55:23;24.60;90.40
17687;DHT22;8962;52.538;13.266;2022-09-01T13:58:06;24.40;91.10
17687;DHT22;8962;52.538;13.266;2022-09-01T14:00:42;24.10;91.50
17687;DHT22;8962;52.538;13.266;2022-09-01T14:03:16;23.80;92.10
17687;DHT22;8962;52.538;13.266;2022-09-01T14:05:47;23.80;92.60
17687;DHT22;8962;52.538;13.266;2022-09-01T14:08:18;23.60;92.60
17687;DHT22;8962;52.538;13.266;2022-09-01T14:10:46;23.30;92.90
17687;DHT22;8962;52.538;13.266;2022-09-01T14:13:23;22.90;93.90
17687;DHT22;8962;52.538;13.266;2022-09-01T14:15:52;22.80;94.90
17687;DHT22;8962;52.538;13.266;2022-09-01T14:18:19;22.60;95.10
17687;DHT22;8962;52.538;13.266;2022-09-01T14:20:50;22.70;95.40
17687;DHT22;8962;52.538;13.266;2022-09-01T14:23:18;22.90;95.00
17687;DHT22;8962;52.538;13.266;2022-09-01T14:25:48;23.10;95.20
17687;DHT22;8962;52.538;13.266;2022-09-01T14:28:21;23.70;94.40
17687;DHT22;8962;52.538;13.266;2022-09-01T14:30:50;25.00;93.30
17687;DHT22;8962;52.538;13.266;2022-09-01T14:33:19;25.60;91.20
17687;DHT22;8962;52.538;13.266;2022-09-01T14:35:49;25.00;91.10
17687;DHT22;8962;52.538;13.266;2022-09-01T14:38:17;24.70;91.40
17687;DHT22;8962;52.538;13.266;2022-09-01T14:40:47;24.30;91.60
17687;DHT22;8962;52.538;13.266;2022-09-01T14:43:17;23.90;92.20
17687;DHT22;8962;52.538;13.266;2022-09-01T14:45:46;23.70;92.30
17687;DHT22;8962;52.538;13.266;2022-09-01T14:48:18;23.70;91.30
17687;DHT22;8962;52.538;13.266;2022-09-01T14:50:50;24.60;90.60
17687;DHT22;8962;52.538;13.266;2022-09-01T14:53:18;25.00;90.00
17687;DHT22;8962;52.538;13.266;2022-09-01T14:55:47;26.80;86.80
17687;DHT22;8962;52.538;13.266;2022-09-01T14:58:17;27.50;83.40
17687;DHT22;8962;52.538;13.266;2022-09-01T15:00:57;27.60;82.50
17687;DHT22;8962;52.538;13.266;2022-09-01T15:03:25;26.00;86.50
17687;DHT22;8962;52.538;13.266;2022-09-01T15:05:52;24.50;90.20
17687;DHT22;8962;52.538;13.266;2022-09-01T15:08:23;24.10;91.40
17687;DHT22;8962;52.538;13.266;2022-09-01T15:10:52;23.50;92.60
17687;DHT22;8962;52.538;13.266;2022-09-01T15:13:21;23.20;94.00
17687;DHT22;8962;52.538;13.266;2022-09-01T15:15:52;23.10;94.00
17687;DHT22;8962;52.538;13.266;2022-09-01T15:18:20;23.00;95.00
17687;DHT22;8962;52.538;13.266;2022-09-01T15:20:48;22.70;94.70
17687;DHT22;8962;52.538;13.266;2022-09-01T15:23:17;22.40;94.70
17687;DHT22;8962;52.538;13.266;2022-09-01T15:25:50;22.10;95.80
17687;DHT22;8962;52.538;13.266;2022-09-01T15:28:21;21.90;95.80
17687;DHT22;8962;52.538;13.266;2022-09-01T15:30:50;22.00;96.30
17687;DHT22;8962;52.538;13.266;2022-09-01T15:33:23;21.80;96.80
17687;DHT22;8962;52.538;13.266;2022-09-01T15:35:50;21.60;97.40
17687;DHT22;8962;52.538;13.266;2022-09-01T15:38:17;21.40;97.50
17687;DHT22;8962;52.538;13.266;2022-09-01T15:40:46;21.20;98.30
17687;DHT22;8962;52.538;13.266;2022-09-01T15:43:20;21.10;99.30
17687;DHT22;8962;52.538;13.266;2022-09-01T15:45:47;21.10;99.90
17687;DHT22;8962;52.538;13.266;2022-09-01T15:48:14;21.10;99.90
17687;DHT22;8962;52.538;13.266;2022-09-01T15:50:44;21.20;99.90
17687;DHT22;8962;52.538;13.266;2022-09-01T15:53:11;21.20;99.90
17687;DHT22;8962;52.538;13.266;2022-09-01T15:55:41;21.10;99.90
17687;DHT22;8962;52.538;13.266;2022-09-01T15:58:09;21.20;99.90
17687;DHT22;8962;52.538;13.266;2022-09-01T16:00:40;21.10;99.90
17687;DHT22;8962;52.538;13.266;2022-09-01T16:03:08;21.20;99.90
17687;DHT22;8962;52.538;13.266;2022-09-01T16:05:37;21.20;99.90
17687;DHT22;8962;52.538;13.266;2022-09-01T16:08:08;21.30;99.90
17687;DHT22;8962;52.538;13.266;2022-09-01T16:10:37;21.50;99.90
17687;DHT22;8962;52.538;13.266;2022-09-01T16:13:07;21.70;99.90
17687;DHT22;8962;52.538;13.266;2022-09-01T16:15:41;21.80;99.90
17687;DHT22;8962;52.538;13.266;2022-09-01T16:18:24;21.80;99.90